createdAt,value
2023-02-14T00:01:20.786Z,8.80
2023-02-14T00:03:49.591Z,9.77
2023-02-14T00:06:17.394Z,8.53
2023-02-14T00:08:45.210Z,9.07
2023-02-14T00:11:13.916Z,8.43
2023-02-14T00:14:01.481Z,8.17
2023-02-14T00:16:28.850Z,8.23
2023-02-14T00:19:05.335Z,9.60
2023-02-14T00:21:36.205Z,8.47
2023-02-14T00:24:11.850Z,8.77
2023-02-14T00:26:39.773Z,8.80
2023-02-14T00:29:11.147Z,9.30
2023-02-14T00:31:39.036Z,8.47
2023-02-14T00:34:07.329Z,7.83
2023-02-14T00:36:34.979Z,8.03
2023-02-14T00:39:07.875Z,8.43
2023-02-14T00:41:37.624Z,7.90
2023-02-14T00:44:05.354Z,8.37
2023-02-14T00:46:32.895Z,7.57
2023-02-14T00:49:00.309Z,7.50
2023-02-14T00:51:27.884Z,9.27
2023-02-14T00:53:55.372Z,7.83
2023-02-14T00:56:22.744Z,8.60
2023-02-14T00:58:50.405Z,8.13
2023-02-14T01:01:19.298Z,8.83
2023-02-14T01:03:47.288Z,7.77
2023-02-14T01:06:15.260Z,7.33
2023-02-14T01:08:42.659Z,7.43
2023-02-14T01:11:13.864Z,7.33
2023-02-14T01:13:41.906Z,7.07
2023-02-14T01:16:12.517Z,7.93
2023-02-14T01:18:40.733Z,6.97
2023-02-14T01:21:15.335Z,6.67
2023-02-14T01:23:43.607Z,7.17
2023-02-14T01:26:12.705Z,6.90
2023-02-14T01:28:40.670Z,7.13
2023-02-14T01:31:12.029Z,6.40
2023-02-14T01:33:40.614Z,6.70
2023-02-14T01:36:14.654Z,6.93
2023-02-14T01:38:42.094Z,7.10
2023-02-14T01:41:09.501Z,7.83
2023-02-14T01:43:53.658Z,7.57
2023-02-14T01:46:21.179Z,6.43
2023-02-14T01:48:50.871Z,6.87
2023-02-14T01:51:20.179Z,5.63
2023-02-14T01:53:49.088Z,6.37
2023-02-14T01:56:25.249Z,5.87
2023-02-14T01:58:56.645Z,5.90
2023-02-14T02:01:24.527Z,6.13
2023-02-14T02:03:54.406Z,6.23
2023-02-14T02:06:26.460Z,5.60
2023-02-14T02:09:12.612Z,5.97
2023-02-14T02:11:41.180Z,6.63
2023-02-14T02:14:16.041Z,6.87
2023-02-14T02:17:10.165Z,7.07
2023-02-14T02:19:54.827Z,6.03
2023-02-14T02:22:51.568Z,6.10
2023-02-14T02:25:40.219Z,6.73
2023-02-14T02:28:35.095Z,6.33
2023-02-14T02:31:36.103Z,6.50
2023-02-14T02:34:11.261Z,6.37
2023-02-14T02:37:05.668Z,5.70
2023-02-14T02:39:49.338Z,6.47
2023-02-14T02:43:08.826Z,6.23
2023-02-14T02:46:27.092Z,5.77
2023-02-14T02:49:01.202Z,6.37
2023-02-14T02:52:03.035Z,7.00
2023-02-14T02:54:37.927Z,6.40
2023-02-14T02:57:12.783Z,6.73
2023-02-14T02:59:42.870Z,5.97
2023-02-14T03:02:28.891Z,6.03
2023-02-14T03:05:02.189Z,6.53
2023-02-14T03:07:35.675Z,6.63
2023-02-14T03:10:08.280Z,6.97
2023-02-14T03:12:35.792Z,6.90
2023-02-14T03:15:21.473Z,6.17
2023-02-14T03:18:13.967Z,5.30
2023-02-14T03:20:55.059Z,6.20
2023-02-14T03:23:33.766Z,6.13
2023-02-14T03:26:12.898Z,6.50
2023-02-14T03:28:48.009Z,5.73
2023-02-14T03:31:34.588Z,5.77
2023-02-14T03:34:47.856Z,6.93
2023-02-14T03:37:22.173Z,6.27
2023-02-14T03:39:55.670Z,6.43
2023-02-14T03:42:31.862Z,6.03
2023-02-14T03:45:00.719Z,5.87
2023-02-14T03:47:32.909Z,6.30
2023-02-14T03:50:06.241Z,5.88
2023-02-14T03:52:36.923Z,6.43
2023-02-14T03:55:09.777Z,6.47
2023-02-14T03:58:16.677Z,6.00
2023-02-14T04:00:45.099Z,6.97
2023-02-14T04:03:15.489Z,7.17
2023-02-14T04:05:46.841Z,6.33
2023-02-14T04:08:24.851Z,6.50
2023-02-14T04:10:53.495Z,6.80
2023-02-14T04:13:21.538Z,7.03
2023-02-14T04:15:48.943Z,7.00
2023-02-14T04:18:54.473Z,6.53
2023-02-14T04:21:21.710Z,6.93
2023-02-14T04:23:48.956Z,6.97
2023-02-14T04:26:16.117Z,7.70
2023-02-14T04:28:43.508Z,7.67
2023-02-14T04:31:11.722Z,7.07
2023-02-14T04:33:39.521Z,7.33
2023-02-14T04:36:07.148Z,6.53
2023-02-14T04:38:34.608Z,7.57
2023-02-14T04:41:02.267Z,7.27
2023-02-14T04:43:29.794Z,6.67
2023-02-14T04:45:57.262Z,6.77
2023-02-14T04:48:24.581Z,7.50
2023-02-14T04:50:54.213Z,6.67
2023-02-14T04:53:22.249Z,6.90
2023-02-14T04:55:50.237Z,6.53
2023-02-14T04:58:18.385Z,7.47
2023-02-14T05:00:45.713Z,6.93
2023-02-14T05:03:13.026Z,7.77
2023-02-14T05:05:40.304Z,6.63
2023-02-14T05:08:07.749Z,6.97
2023-02-14T05:10:35.059Z,6.77
2023-02-14T05:13:02.397Z,6.57
2023-02-14T05:15:29.721Z,6.83
2023-02-14T05:18:01.824Z,7.03
2023-02-14T05:20:30.542Z,7.47
2023-02-14T05:23:03.674Z,7.03
2023-02-14T05:25:31.963Z,6.60
2023-02-14T05:27:59.305Z,6.77
2023-02-14T05:30:28.242Z,6.90
2023-02-14T05:32:55.655Z,6.67
2023-02-14T05:35:23.087Z,7.60
2023-02-14T05:37:50.500Z,7.47
2023-02-14T05:40:17.999Z,8.07
2023-02-14T05:42:45.354Z,7.97
2023-02-14T05:45:13.386Z,8.17
2023-02-14T05:47:41.075Z,7.97
2023-02-14T05:50:08.846Z,7.70
2023-02-14T05:52:36.343Z,6.83
2023-02-14T05:55:04.123Z,8.20
2023-02-14T05:57:31.607Z,7.37
2023-02-14T05:59:58.958Z,7.47
2023-02-14T06:02:26.375Z,7.47
2023-02-14T06:04:53.740Z,8.53
2023-02-14T06:07:21.077Z,6.87
2023-02-14T06:09:48.324Z,6.97
2023-02-14T06:12:15.617Z,7.23
2023-02-14T06:14:43.379Z,7.30
2023-02-14T06:17:10.842Z,6.70
2023-02-14T06:19:38.212Z,7.70
2023-02-14T06:22:05.565Z,8.17
2023-02-14T06:24:32.802Z,6.57
2023-02-14T06:27:00.381Z,7.30
2023-02-14T06:29:27.868Z,7.17
2023-02-14T06:31:55.252Z,7.10
2023-02-14T06:34:22.589Z,8.47
2023-02-14T06:36:49.876Z,7.20
2023-02-14T06:39:17.256Z,7.50
2023-02-14T06:41:44.525Z,7.33
2023-02-14T06:44:11.811Z,7.23
2023-02-14T06:46:39.173Z,7.33
2023-02-14T06:49:06.592Z,7.50
2023-02-14T06:51:33.937Z,7.10
2023-02-14T06:54:01.225Z,8.83
2023-02-14T06:56:29.002Z,6.67
2023-02-14T06:58:56.281Z,7.03
2023-02-14T07:01:23.636Z,7.90
2023-02-14T07:03:50.913Z,7.13
2023-02-14T07:06:18.205Z,7.37
2023-02-14T07:08:45.776Z,6.80
2023-02-14T07:11:13.017Z,7.53
2023-02-14T07:13:40.433Z,6.90
2023-02-14T07:16:07.817Z,7.97
2023-02-14T07:18:35.490Z,7.57
2023-02-14T07:21:03.123Z,6.87
2023-02-14T07:23:30.738Z,7.10
2023-02-14T07:25:57.992Z,7.33
2023-02-14T07:28:25.446Z,7.33
2023-02-14T07:30:52.836Z,6.60
2023-02-14T07:33:20.200Z,7.03
2023-02-14T07:35:47.504Z,7.97
2023-02-14T07:38:14.907Z,7.83
2023-02-14T07:40:42.278Z,6.50
2023-02-14T07:43:09.621Z,7.50
2023-02-14T07:45:36.991Z,7.97
2023-02-14T07:48:04.486Z,7.47
2023-02-14T07:50:31.946Z,7.43
2023-02-14T07:52:59.323Z,6.90
2023-02-14T07:55:26.703Z,7.90
2023-02-14T07:57:54.149Z,6.50
2023-02-14T08:00:21.938Z,6.13
2023-02-14T08:02:49.660Z,6.30
2023-02-14T08:05:18.101Z,6.20
2023-02-14T08:07:48.453Z,6.33
2023-02-14T08:10:15.782Z,6.27
2023-02-14T08:13:01.351Z,6.57
2023-02-14T08:15:54.542Z,6.37
2023-02-14T08:18:27.323Z,5.80
2023-02-14T08:23:22.620Z,6.13
2023-02-14T08:25:51.152Z,6.07
2023-02-14T08:28:21.719Z,6.03
2023-02-14T08:30:49.690Z,6.10
2023-02-14T08:33:17.096Z,6.00
2023-02-14T08:35:44.524Z,6.03
2023-02-14T08:38:12.776Z,6.20
2023-02-14T08:40:40.284Z,6.10
2023-02-14T08:43:08.062Z,6.30
2023-02-14T08:45:36.022Z,6.67
2023-02-14T08:48:08.980Z,5.77
2023-02-14T08:50:37.084Z,5.70
2023-02-14T08:53:13.295Z,6.27
2023-02-14T08:55:41.120Z,6.80
2023-02-14T08:58:09.299Z,6.73
2023-02-14T09:00:36.879Z,6.50
2023-02-14T09:03:04.622Z,6.20
2023-02-14T09:05:32.037Z,6.40
2023-02-14T09:07:59.759Z,5.90
2023-02-14T09:10:28.626Z,6.93
2023-02-14T09:12:56.132Z,6.17
2023-02-14T09:15:23.530Z,6.77
2023-02-14T09:17:52.170Z,6.33
2023-02-14T09:20:20.102Z,6.73
2023-02-14T09:22:48.828Z,7.30
2023-02-14T09:25:19.778Z,7.37
2023-02-14T09:27:47.164Z,7.00
2023-02-14T09:30:15.287Z,7.47
2023-02-14T09:32:42.693Z,7.60
2023-02-14T09:35:09.988Z,8.50
2023-02-14T09:37:55.664Z,8.27
2023-02-14T09:40:23.314Z,8.40
2023-02-14T09:43:01.998Z,8.47
2023-02-14T09:45:32.442Z,7.83
2023-02-14T09:48:08.194Z,8.03
2023-02-14T09:50:42.682Z,8.63
2023-02-14T09:53:16.127Z,8.53
2023-02-14T09:56:00.253Z,9.33
2023-02-14T09:58:47.791Z,9.63
2023-02-14T10:01:26.674Z,8.17
2023-02-14T10:04:22.146Z,9.60
2023-02-14T10:06:51.215Z,8.77
2023-02-14T10:09:46.553Z,9.47
2023-02-14T10:12:36.930Z,9.43
2023-02-14T10:15:39.650Z,9.77
2023-02-14T10:18:43.433Z,9.30
2023-02-14T10:21:39.566Z,8.57
2023-02-14T10:24:28.726Z,9.70
2023-02-14T10:27:12.766Z,9.43
2023-02-14T10:29:41.460Z,9.43
2023-02-14T10:32:15.103Z,10.23
2023-02-14T10:34:49.842Z,9.60
2023-02-14T10:38:07.894Z,9.33
2023-02-14T10:40:59.824Z,9.30
2023-02-14T10:43:51.876Z,10.73
2023-02-14T10:46:39.127Z,9.67
2023-02-14T10:49:25.409Z,9.23
2023-02-14T10:52:15.621Z,9.13
2023-02-14T10:54:46.378Z,9.40
2023-02-14T10:57:20.867Z,9.13
2023-02-14T11:00:23.572Z,9.80
2023-02-14T11:03:00.251Z,9.45
2023-02-14T11:05:41.834Z,9.50
2023-02-14T11:08:40.473Z,10.13
2023-02-14T11:11:32.515Z,9.40
2023-02-14T11:14:00.001Z,9.00
2023-02-14T11:16:36.929Z,10.18
2023-02-14T11:19:16.402Z,10.27
2023-02-14T11:21:46.797Z,9.88
2023-02-14T11:24:39.053Z,10.70
2023-02-14T11:27:12.504Z,9.90
2023-02-14T11:29:39.858Z,10.50
2023-02-14T11:32:20.723Z,10.65
2023-02-14T11:34:57.599Z,8.95
2023-02-14T11:37:43.021Z,10.50
2023-02-14T11:40:30.950Z,9.95
2023-02-14T11:43:19.282Z,10.30
2023-02-14T11:45:48.906Z,10.60
2023-02-14T11:48:34.901Z,9.90
2023-02-14T11:51:14.176Z,9.70
2023-02-14T11:53:57.157Z,10.45
2023-02-14T11:56:24.657Z,10.93
2023-02-14T11:58:58.422Z,10.18
2023-02-14T12:01:30.091Z,9.73
2023-02-14T12:04:03.803Z,10.70
2023-02-14T12:06:35.584Z,10.55
2023-02-14T12:09:24.955Z,10.80
2023-02-14T12:12:19.936Z,11.07
2023-02-14T12:14:48.450Z,10.80
2023-02-14T12:17:18.618Z,10.90
2023-02-14T12:20:11.679Z,11.13
2023-02-14T12:25:48.018Z,9.43
2023-02-14T12:30:50.186Z,9.27
2023-02-14T12:33:22.239Z,10.98
2023-02-14T12:35:55.383Z,10.50
2023-02-14T12:39:05.592Z,10.52
2023-02-14T12:41:48.484Z,10.65
2023-02-14T12:47:32.332Z,9.75
2023-02-14T12:50:41.457Z,9.80
2023-02-14T12:53:37.918Z,11.55
2023-02-14T12:56:11.038Z,10.63
2023-02-14T12:59:22.365Z,10.90
2023-02-14T13:02:01.982Z,10.65
2023-02-14T13:04:29.362Z,9.50
2023-02-14T13:07:15.485Z,10.10
2023-02-14T13:09:54.818Z,11.35
2023-02-14T13:12:47.033Z,11.38
2023-02-14T13:15:55.196Z,12.03
2023-02-14T13:18:47.154Z,11.38
2023-02-14T13:21:18.591Z,11.05
2023-02-14T13:23:48.892Z,10.60
2023-02-14T13:26:20.877Z,11.20
2023-02-14T13:28:56.457Z,10.77
2023-02-14T13:31:24.355Z,10.55
2023-02-14T13:34:03.589Z,10.50
2023-02-14T13:36:31.983Z,10.77
2023-02-14T13:39:00.416Z,10.18
2023-02-14T13:41:28.996Z,10.73
2023-02-14T13:43:57.231Z,10.45
2023-02-14T13:46:33.511Z,11.38
2023-02-14T13:49:38.825Z,11.40
2023-02-14T13:52:06.877Z,10.52
2023-02-14T13:54:36.358Z,11.38
2023-02-14T13:57:25.749Z,11.65
2023-02-14T14:00:17.675Z,10.05
2023-02-14T14:02:48.929Z,11.07
2023-02-14T14:05:32.670Z,11.27
2023-02-14T14:08:22.546Z,10.38
2023-02-14T14:11:00.121Z,10.82
2023-02-14T14:13:42.693Z,12.18
2023-02-14T14:16:39.339Z,11.57
2023-02-14T14:19:09.537Z,10.57
2023-02-14T14:21:45.295Z,10.90
2023-02-14T14:24:29.269Z,10.75
2023-02-14T14:27:04.262Z,11.20
2023-02-14T14:29:46.368Z,10.77
2023-02-14T14:32:37.889Z,12.43
2023-02-14T14:35:19.979Z,11.45
2023-02-14T14:37:50.206Z,12.00
2023-02-14T14:40:28.944Z,11.65
2023-02-14T14:43:27.280Z,12.52
2023-02-14T14:45:56.528Z,12.50
2023-02-14T14:48:51.019Z,14.00
2023-02-14T14:51:34.631Z,11.95
2023-02-14T14:54:06.230Z,11.20
2023-02-14T14:56:37.458Z,12.32
2023-02-14T14:59:28.438Z,11.35
2023-02-14T15:01:55.836Z,10.98
2023-02-14T15:04:34.386Z,10.65
2023-02-14T15:07:19.900Z,10.98
2023-02-14T15:09:47.379Z,12.13
2023-02-14T15:12:38.885Z,11.25
2023-02-14T15:15:10.215Z,9.73
2023-02-14T15:17:38.535Z,11.13
2023-02-14T15:20:26.619Z,10.20
2023-02-14T15:22:54.657Z,10.50
2023-02-14T15:25:27.072Z,10.48
2023-02-14T15:27:54.447Z,9.45
2023-02-14T15:30:31.013Z,10.82
2023-02-14T15:32:59.272Z,11.32
2023-02-14T15:35:30.750Z,10.60
2023-02-14T15:38:02.766Z,10.55
2023-02-14T15:40:33.712Z,11.57
2023-02-14T15:43:27.906Z,9.85
2023-02-14T15:46:00.139Z,12.00
2023-02-14T15:48:34.050Z,11.23
2023-02-14T15:51:04.967Z,10.25
2023-02-14T15:53:36.574Z,10.82
2023-02-14T15:56:11.451Z,11.03
2023-02-14T15:58:40.773Z,10.90
2023-02-14T16:01:09.550Z,11.30
2023-02-14T16:03:43.705Z,10.70
2023-02-14T16:06:30.571Z,11.77
2023-02-14T16:08:58.420Z,10.25
2023-02-14T16:11:38.200Z,11.10
2023-02-14T16:14:37.636Z,10.52
2023-02-14T16:17:12.898Z,9.70
2023-02-14T16:19:43.222Z,10.65
2023-02-14T16:22:13.358Z,9.88
2023-02-14T16:24:42.180Z,10.43
2023-02-14T16:27:09.785Z,9.93
2023-02-14T16:29:37.268Z,9.95
2023-02-14T16:32:20.328Z,9.32
2023-02-14T16:34:48.848Z,9.80
2023-02-14T16:37:33.750Z,9.82
2023-02-14T16:40:02.028Z,10.10
2023-02-14T16:42:29.476Z,10.95
2023-02-14T16:44:57.829Z,10.38
2023-02-14T16:47:27.946Z,9.90
2023-02-14T16:49:55.492Z,11.05
2023-02-14T16:52:25.687Z,10.40
2023-02-14T16:54:53.650Z,9.57
2023-02-14T16:57:37.363Z,10.75
2023-02-14T17:00:06.640Z,10.18
2023-02-14T17:02:37.563Z,10.32
2023-02-14T17:05:05.256Z,10.55
2023-02-14T17:07:33.825Z,10.20
2023-02-14T17:10:09.068Z,9.73
2023-02-14T17:12:40.509Z,11.45
2023-02-14T17:15:13.225Z,10.35
2023-02-14T17:20:08.796Z,9.27
2023-02-14T17:22:37.623Z,9.90
2023-02-14T17:25:06.315Z,9.48
2023-02-14T17:27:33.734Z,8.98
2023-02-14T17:30:01.147Z,9.40
2023-02-14T17:32:28.540Z,10.27
2023-02-14T17:34:56.637Z,9.07
2023-02-14T17:37:24.099Z,9.30
2023-02-14T17:39:53.221Z,9.98
2023-02-14T17:42:20.497Z,9.93
2023-02-14T17:44:47.764Z,10.05
2023-02-14T17:47:16.338Z,10.57
2023-02-14T17:49:47.288Z,10.18
2023-02-14T17:52:15.822Z,9.88
2023-02-14T17:54:43.310Z,10.45
2023-02-14T17:57:12.723Z,10.05
2023-02-14T17:59:40.192Z,10.05
2023-02-14T18:02:07.682Z,10.10
2023-02-14T18:04:36.500Z,10.43
2023-02-14T18:07:05.004Z,10.38
2023-02-14T18:09:32.673Z,11.25
2023-02-14T18:11:59.968Z,10.32
2023-02-14T18:14:27.622Z,10.50
2023-02-14T18:16:54.975Z,10.02
2023-02-14T18:19:22.256Z,10.45
2023-02-14T18:21:49.715Z,10.98
2023-02-14T18:24:18.496Z,11.70
2023-02-14T18:26:48.946Z,12.10
2023-02-14T18:29:16.400Z,10.48
2023-02-14T18:31:45.631Z,10.90
2023-02-14T18:34:13.159Z,10.95
2023-02-14T18:36:41.914Z,11.35
2023-02-14T18:39:10.666Z,10.23
2023-02-14T18:41:38.483Z,8.55
2023-02-14T18:44:06.452Z,9.23
2023-02-14T18:46:35.942Z,8.38
2023-02-14T18:49:07.245Z,8.68
2023-02-14T18:51:38.026Z,8.33
2023-02-14T18:54:05.886Z,7.07
2023-02-14T18:56:36.487Z,7.13
2023-02-14T18:59:14.332Z,8.32
2023-02-14T19:01:45.996Z,7.43
2023-02-14T19:04:13.864Z,9.10
2023-02-14T19:06:42.465Z,9.60
2023-02-14T19:09:17.282Z,10.20
2023-02-14T19:11:45.052Z,9.02
2023-02-14T19:14:13.550Z,9.35
2023-02-14T19:16:52.315Z,9.37
2023-02-14T19:19:20.351Z,8.68
2023-02-14T19:21:48.359Z,9.33
2023-02-14T19:24:17.516Z,9.47
2023-02-14T19:26:45.211Z,7.90
2023-02-14T19:29:15.783Z,7.57
2023-02-14T19:31:48.431Z,7.83
2023-02-14T19:34:29.644Z,6.13
2023-02-14T19:37:00.002Z,6.03
2023-02-14T19:39:31.953Z,6.20
2023-02-14T19:42:03.352Z,5.22
2023-02-14T19:44:31.427Z,6.43
2023-02-14T19:47:02.741Z,6.93
2023-02-14T19:49:32.444Z,7.57
2023-02-14T19:52:00.213Z,6.47
2023-02-14T19:54:27.513Z,6.30
2023-02-14T19:56:56.524Z,6.73
2023-02-14T19:59:24.037Z,5.47
2023-02-14T20:01:53.430Z,5.80
2023-02-14T20:04:25.907Z,4.47
2023-02-14T20:09:23.324Z,4.17
2023-02-14T20:11:54.543Z,3.97
2023-02-14T20:14:28.299Z,4.00
2023-02-14T20:16:57.750Z,4.37
2023-02-14T20:19:30.281Z,4.07
2023-02-14T20:22:00.746Z,3.67
2023-02-14T20:24:32.563Z,4.57
2023-02-14T20:27:00.715Z,4.53
2023-02-14T20:29:28.502Z,4.73
2023-02-14T20:31:59.899Z,4.70
2023-02-14T20:34:29.332Z,5.10
2023-02-14T20:37:00.485Z,4.00
2023-02-14T20:39:34.036Z,3.70
2023-02-14T20:42:02.164Z,4.23
2023-02-14T20:44:32.912Z,4.30
2023-02-14T20:47:02.124Z,4.27
2023-02-14T20:49:31.361Z,4.10
2023-02-14T20:52:06.443Z,4.63
2023-02-14T20:54:38.998Z,3.93
2023-02-14T20:57:06.348Z,3.87
2023-02-14T20:59:33.770Z,3.80
2023-02-14T21:02:01.145Z,3.80
2023-02-14T21:04:29.718Z,4.13
2023-02-14T21:06:58.046Z,4.47
2023-02-14T21:09:25.427Z,4.47
2023-02-14T21:11:54.197Z,4.63
2023-02-14T21:14:21.525Z,4.90
2023-02-14T21:16:48.809Z,4.43
2023-02-14T21:19:16.300Z,4.30
2023-02-14T21:21:43.902Z,4.73
2023-02-14T21:24:16.061Z,3.90
2023-02-14T21:26:44.118Z,4.45
2023-02-14T21:29:11.522Z,4.70
2023-02-14T21:31:39.356Z,4.57
2023-02-14T21:34:07.029Z,4.43
2023-02-14T21:36:38.183Z,4.20
2023-02-14T21:39:06.788Z,5.00
2023-02-14T21:41:35.522Z,4.90
2023-02-14T21:44:04.370Z,4.63
2023-02-14T21:46:36.981Z,4.73
2023-02-14T21:51:51.863Z,4.37
2023-02-14T21:54:19.327Z,4.17
2023-02-14T21:56:46.694Z,4.27
2023-02-14T21:59:14.618Z,4.37
2023-02-14T22:01:42.929Z,3.83
2023-02-14T22:04:12.344Z,4.00
2023-02-14T22:06:41.109Z,4.60
2023-02-14T22:09:09.588Z,4.10
2023-02-14T22:11:37.118Z,4.10
2023-02-14T22:14:04.620Z,3.93
2023-02-14T22:16:32.028Z,3.77
2023-02-14T22:18:59.308Z,3.87
2023-02-14T22:21:27.270Z,4.63
2023-02-14T22:23:55.618Z,4.53
2023-02-14T22:26:25.931Z,3.67
2023-02-14T22:29:00.435Z,4.33
2023-02-14T22:31:32.374Z,4.50
2023-02-14T22:34:00.396Z,4.32
2023-02-14T22:36:27.869Z,4.20
2023-02-14T22:38:55.352Z,3.73
2023-02-14T22:41:24.384Z,4.23
2023-02-14T22:43:53.449Z,4.60
2023-02-14T22:46:28.074Z,4.10
2023-02-14T22:48:56.875Z,4.13
2023-02-14T22:51:28.868Z,4.37
2023-02-14T22:54:00.340Z,3.15
2023-02-14T22:56:37.134Z,4.30
2023-02-14T22:59:14.069Z,3.87
2023-02-14T23:01:41.583Z,3.90
2023-02-14T23:04:09.441Z,3.77
2023-02-14T23:06:37.659Z,4.03
2023-02-14T23:09:08.074Z,4.00
2023-02-14T23:11:37.529Z,4.37
2023-02-14T23:14:24.054Z,4.20
2023-02-14T23:17:09.903Z,4.50
2023-02-14T23:19:56.340Z,4.50
2023-02-14T23:22:33.128Z,3.97
2023-02-14T23:25:03.735Z,4.33
2023-02-14T23:27:33.226Z,4.47
2023-02-14T23:30:00.912Z,4.30
2023-02-14T23:32:28.632Z,4.43
2023-02-14T23:34:55.930Z,4.13
2023-02-14T23:37:23.313Z,5.53
2023-02-14T23:39:53.361Z,4.63
2023-02-14T23:42:20.842Z,5.07
2023-02-14T23:44:49.232Z,5.23
2023-02-14T23:47:16.626Z,4.90
2023-02-14T23:49:45.933Z,5.23
2023-02-14T23:52:14.446Z,5.70
2023-02-14T23:54:41.864Z,5.17
2023-02-14T23:57:09.361Z,5.43
2023-02-14T23:59:36.828Z,5.57
